Buford, OH (45110)

12:43 PM EDT on August 28, 2016 (GMT -0400)
Hillsboro | | Change Station
Active Advisory: Heat Advisory

Elev 1102 ft 39.21 °N, 83.60 °W | Updated 3 seconds ago

Clear
Clear
87.4 °F
Feels Like 90 °F
N
6.9
Wind Variable Wind from North
Gusts 6.9 mph

Today
High -- | Low -- °F
--% Chance of Precip.
Yesterday
High -- | Low -- °F
Precip. -- in
Pressure 30.19 in
Visibility 10.0 miles
Clouds Clear
Heat Index 90 °F
Dew Point 67 °F
Humidity 51%
Rainfall 0.00 in
Snow Depth Not available.
6:59 AM 8:10 PM
Waning Crescent, 14% visible
METAR KILN 281554Z AUTO VRB04KT 10SM CLR 30/22 A3023 RMK AO2 SLP224 T03000217
Pressure 30.19 in
Visibility 10.0 miles
Clouds Clear
Heat Index 90 °F
Dew Point 67 °F
Humidity 51%
Rainfall 0.00 in
Snow Depth Not available.
6:59 AM 8:10 PM
Waning Crescent, 14% visible
METAR KILN 281554Z AUTO VRB04KT 10SM CLR 30/22 A3023 RMK AO2 SLP224 T03000217

10-Day Weather Forecast

Almanac

Astronomy

Aug. 28, 2016 Rise Set
Actual Time
Civil Twilight
Nautical Twilight
Astronomical Twilight
Moon
Length of Visible Light
Length of Day
Tomorrow will be .
, % of the Moon is Illuminated

Today's Extremes

State Highs State Lows

Community

WunderPhotos

Upload Photos

1,935,627 photos uploaded!

WunderBlog® & News

Nearby

Air Quality

  Air Quality AQ Index Pollutant
Not available.

Snow Depth

Station Depth Elevation

Earthquake Activity

City Distance Mag. Time & Date
Minimum magnitude displayed is 2.5.

Coastal Water Temperatures

Place Temperature

Stations

Nearby Weather Stations

Station Location Temp. Windchill Dew Point Humidity Wind Precip. Elev Updated Type
                   

Watches & Warnings

Heat Advisory
Issued: 11:22 AM EDT Aug. 28, 2016 – National Weather Service

... Heat advisory remains in effect until 9 PM EDT this evening...

* heat index values... up to 101 due to temperatures in the lower
90s... and dewpoints in the lower 70s.

* Timing... this afternoon into early evening.

* Impacts... heat stroke... heat exhaustion and other heat
related illnesses will be possible... especially if you spend a
significant amount of time outdoors... or are involved in any
strenuous outdoor activity.

Precautionary/preparedness actions...

Reduce outdoor activities... especially from mid-morning through
the afternoon. Wear light weight and loose fitting clothing and
drink plenty of water. If possible... spend more time in air
conditioned or well ventilated places.